Time;durP1;ratioP1;P1;durP2;ratioP2;P2;SDS_P1;SDS_P2;PMS_P1;PMS_P2;Temp;Humidity;BMP_temperature;BMP_pressure;BME280_temperature;BME280_humidity;BME280_pressure;Samples;Min_cycle;Max_cycle;Signal;HPM_P1;HPM_P2
2023/04/11 00:00:55;;;;;;;1.63;1.53;;;;;;;14.07;53.47;96435.19;5050996;28;20210;-56
2023/04/11 00:03:22;;;;;;;2.78;1.30;;;;;;;14.02;54.21;96438.41;5040650;28;20611;-56
2023/04/11 00:05:49;;;;;;;2.10;1.40;;;;;;;13.95;54.65;96448.88;5040373;28;20259;-56
2023/04/11 00:08:15;;;;;;;1.90;1.50;;;;;;;14.03;52.55;96450.66;5051881;28;20199;-56
2023/04/11 00:10:42;;;;;;;1.50;1.40;;;;;;;13.99;52.48;96448.53;5054967;28;20206;-56
2023/04/11 00:13:09;;;;;;;1.90;1.80;;;;;;;14.00;52.86;96424.41;5040531;28;20211;-56
2023/04/11 00:15:38;;;;;;;1.67;1.57;;;;;;;14.03;52.22;96437.38;5043259;28;20227;-57
2023/04/11 00:18:05;;;;;;;1.80;1.70;;;;;;;14.05;52.53;96447.84;5052511;28;20203;-56
2023/04/11 00:20:32;;;;;;;1.23;1.10;;;;;;;14.06;51.29;96444.19;5034692;28;20269;-56
2023/04/11 00:22:58;;;;;;;1.20;1.20;;;;;;;14.10;51.52;96441.00;5042466;28;20287;-56
2023/04/11 00:25:25;;;;;;;1.57;1.47;;;;;;;14.11;51.73;96444.50;5039267;28;20203;-56
2023/04/11 00:27:52;;;;;;;1.70;1.60;;;;;;;14.15;51.07;96437.84;5047316;28;20770;-56
2023/04/11 00:30:19;;;;;;;3.40;1.43;;;;;;;14.16;50.34;96439.53;5055280;28;20677;-56
2023/04/11 00:32:48;;;;;;;1.60;1.50;;;;;;;14.21;50.55;96439.81;5042189;28;20288;-57
2023/04/11 00:35:14;;;;;;;1.57;1.47;;;;;;;14.24;49.25;96434.19;5045381;28;20299;-56
2023/04/11 00:37:43;;;;;;;1.27;1.20;;;;;;;14.30;48.61;96441.47;5064761;28;20204;-56
2023/04/11 00:40:11;;;;;;;2.07;1.37;;;;;;;14.32;49.70;96444.78;5055363;28;20199;-57
2023/04/11 00:42:38;;;;;;;1.50;1.40;;;;;;;14.39;49.44;96435.16;5047631;28;20204;-57
2023/04/11 00:45:05;;;;;;;1.60;1.50;;;;;;;14.38;49.52;96422.88;5058406;28;20207;-57
2023/04/11 00:47:32;;;;;;;1.87;1.30;;;;;;;14.40;49.59;96420.84;5048523;28;20204;-57
2023/04/11 00:50:00;;;;;;;1.23;1.13;;;;;;;14.42;49.59;96429.47;5052000;28;20207;-57
2023/04/11 00:52:27;;;;;;;1.53;1.40;;;;;;;14.44;49.87;96416.84;5053095;28;20612;-56
2023/04/11 00:54:53;;;;;;;1.70;1.60;;;;;;;14.41;50.89;96412.72;5053409;28;20547;-56
2023/04/11 00:57:21;;;;;;;1.23;1.13;;;;;;;14.45;49.26;96414.00;5058002;28;20234;-57
2023/04/11 00:59:48;;;;;;;4.03;1.47;;;;;;;14.42;49.84;96405.53;5058463;28;20273;-56
2023/04/11 01:02:17;;;;;;;1.50;1.40;;;;;;;14.42;50.43;96397.56;5054782;28;20203;-57
2023/04/11 01:04:44;;;;;;;1.20;1.20;;;;;;;14.41;51.10;96411.88;5054179;28;20544;-55
2023/04/11 01:07:12;;;;;;;1.63;1.53;;;;;;;14.38;51.59;96406.91;5055856;28;20199;-56
2023/04/11 01:09:39;;;;;;;1.43;1.30;;;;;;;14.34;53.10;96406.44;5044631;28;20275;-56
2023/04/11 01:12:06;;;;;;;1.83;1.30;;;;;;;14.36;52.27;96395.59;5057618;28;20218;-56
2023/04/11 01:14:32;;;;;;;1.67;1.20;;;;;;;14.23;52.90;96392.63;5063339;28;20539;-57
2023/04/11 01:17:01;;;;;;;1.20;1.20;;;;;;;14.30;51.96;96413.06;5054739;28;20245;-57
2023/04/11 01:19:28;;;;;;;1.40;1.30;;;;;;;14.30;51.01;96401.59;5054306;28;20214;-55
2023/04/11 01:21:56;;;;;;;1.23;1.13;;;;;;;14.19;51.62;96383.31;5054371;28;20245;-57
2023/04/11 01:24:25;;;;;;;1.87;1.60;;;;;;;14.10;51.53;96377.19;5054487;28;20218;-57
2023/04/11 01:26:52;;;;;;;4.32;1.30;;;;;;;14.03;52.07;96368.25;5059005;28;20225;-57
2023/04/11 01:29:18;;;;;;;1.40;1.30;;;;;;;13.95;52.55;96369.13;5064521;28;20616;-56
2023/04/11 01:31:45;;;;;;;1.60;1.50;;;;;;;13.86;52.20;96370.13;5064919;28;20208;-57
2023/04/11 01:34:13;;;;;;;1.77;1.60;;;;;;;13.88;52.30;96376.13;5050063;28;20207;-57
2023/04/11 01:36:41;;;;;;;1.50;1.40;;;;;;;13.84;52.49;96368.66;5055516;28;20223;-56
2023/04/11 01:39:08;;;;;;;1.60;1.50;;;;;;;13.85;52.93;96392.38;5053998;28;20214;-57
2023/04/11 01:41:36;;;;;;;1.50;1.40;;;;;;;13.79;53.06;96390.41;5054744;28;20213;-56
2023/04/11 01:44:02;;;;;;;1.60;1.50;;;;;;;13.87;53.18;96386.91;5051547;28;20541;-56
2023/04/11 01:46:29;;;;;;;1.80;1.70;;;;;;;13.82;53.98;96382.09;5059664;28;20203;-57
2023/04/11 01:48:56;;;;;;;2.50;1.50;;;;;;;13.82;54.10;96384.75;5040257;28;20303;-57
2023/04/11 01:51:22;;;;;;;1.63;1.53;;;;;;;13.81;53.90;96383.13;5055585;28;20198;-57
2023/04/11 01:53:49;;;;;;;1.57;1.47;;;;;;;13.81;53.92;96377.78;5061202;28;20206;-56
2023/04/11 01:56:15;;;;;;;1.60;1.50;;;;;;;13.75;53.64;96370.47;5042666;28;20232;-56
2023/04/11 01:58:44;;;;;;;1.63;1.53;;;;;;;13.79;54.05;96361.16;5068262;28;20633;-56
2023/04/11 02:01:12;;;;;;;1.10;1.10;;;;;;;13.83;53.77;96359.84;5049404;28;20231;-56
2023/04/11 02:03:38;;;;;;;1.53;1.40;;;;;;;13.85;54.08;96349.84;5056449;28;20234;-56
2023/04/11 02:06:06;;;;;;;1.40;1.30;;;;;;;13.81;53.79;96351.22;5057500;28;20206;-56
2023/04/11 02:08:33;;;;;;;1.60;1.53;;;;;;;13.82;53.98;96336.91;5042042;28;20299;-57
2023/04/11 02:10:59;;;;;;;1.20;1.20;;;;;;;13.81;53.97;96345.91;5040529;28;20211;-57
2023/04/11 02:13:26;;;;;;;1.37;1.37;;;;;;;13.81;54.53;96339.75;5041910;28;20562;-57
2023/04/11 02:15:56;;;;;;;1.60;1.50;;;;;;;13.78;55.17;96354.19;5047740;28;20235;-57
2023/04/11 02:18:22;;;;;;;1.40;1.30;;;;;;;13.72;55.05;96354.03;5054070;28;20200;-57
2023/04/11 02:20:50;;;;;;;2.60;1.30;;;;;;;13.77;54.41;96347.25;5037857;28;20235;-57
2023/04/11 02:23:16;;;;;;;1.60;1.50;;;;;;;13.75;54.44;96361.66;5051384;28;20647;-56
2023/04/11 02:25:42;;;;;;;1.83;1.50;;;;;;;13.75;54.76;96365.16;5038367;28;20204;-56
2023/04/11 02:28:09;;;;;;;1.33;1.23;;;;;;;13.77;54.35;96365.84;5043497;28;20235;-56
2023/04/11 02:30:35;;;;;;;3.07;1.50;;;;;;;13.79;54.77;96374.47;5059512;28;20218;-57
2023/04/11 02:33:03;;;;;;;2.03;1.30;;;;;;;13.83;54.57;96377.63;5050976;28;20203;-56
2023/04/11 02:35:30;;;;;;;1.60;1.30;;;;;;;13.84;54.64;96374.78;5061833;28;20210;-57
2023/04/11 02:37:56;;;;;;;2.47;1.43;;;;;;;13.95;53.79;96369.13;5061927;28;20681;-56
2023/04/11 02:40:23;;;;;;;1.77;1.67;;;;;;;14.07;55.24;96372.22;5068006;28;20195;-57
2023/04/11 02:42:49;;;;;;;1.57;1.47;;;;;;;14.18;53.83;96379.00;5062862;28;20215;-56
2023/04/11 02:45:17;;;;;;;1.93;1.47;;;;;;;14.12;54.11;96382.34;5066349;28;20198;-56
2023/04/11 02:47:43;;;;;;;1.53;1.40;;;;;;;14.09;56.22;96385.38;5061771;28;20265;-56
2023/04/11 02:50:14;;;;;;;1.30;1.20;;;;;;;14.19;56.81;96392.16;5055573;28;20282;-56
2023/04/11 02:52:44;;;;;;;1.73;1.63;;;;;;;14.17;59.05;96372.06;5073202;28;20305;-56
2023/04/11 02:55:10;;;;;;;1.60;1.50;;;;;;;14.14;58.89;96369.72;5063651;28;20198;-57
2023/04/11 02:57:37;;;;;;;2.07;1.90;;;;;;;14.03;59.35;96375.41;5067651;28;20251;-56
2023/04/11 03:00:06;;;;;;;2.50;1.70;;;;;;;14.01;59.85;96391.53;5067416;28;20261;-57
2023/04/11 03:02:32;;;;;;;1.70;1.60;;;;;;;13.92;60.19;96395.22;5043281;28;20212;-56
2023/04/11 03:05:02;;;;;;;1.80;1.70;;;;;;;13.88;60.82;96400.03;5038015;28;20219;-57
2023/04/11 03:07:32;;;;;;;2.13;1.70;;;;;;;13.86;61.57;96410.00;5048030;28;20204;-57
2023/04/11 03:09:58;;;;;;;1.50;1.40;;;;;;;13.82;63.53;96411.31;5041418;28;20203;-56
2023/04/11 03:12:25;;;;;;;1.77;1.67;;;;;;;14.01;62.31;96409.31;5036961;28;20226;-56
2023/04/11 03:14:51;;;;;;;1.77;1.67;;;;;;;13.95;62.73;96403.69;5038941;28;20203;-56
2023/04/11 03:17:18;;;;;;;1.67;1.47;;;;;;;13.86;64.93;96407.34;5047037;28;20227;-56
2023/04/11 03:19:44;;;;;;;2.63;1.50;;;;;;;13.89;66.86;96406.16;5035739;28;20204;-57
2023/04/11 03:22:11;;;;;;;1.97;1.87;;;;;;;13.75;69.14;96407.69;5036303;28;20239;-57
2023/04/11 03:24:39;;;;;;;2.40;2.20;;;;;;;13.64;72.86;96413.34;5049437;28;20236;-57
2023/04/11 03:27:05;;;;;;;2.10;1.90;;;;;;;13.51;74.00;96410.38;5038243;28;20215;-56
2023/04/11 03:29:32;;;;;;;2.00;1.80;;;;;;;13.43;73.90;96421.00;5059660;28;20212;-57
2023/04/11 03:31:58;;;;;;;3.63;2.03;;;;;;;13.18;76.74;96417.50;5064181;28;20207;-57
2023/04/11 03:34:25;;;;;;;1.73;1.63;;;;;;;13.09;77.64;96420.28;5063885;28;20231;-56
2023/04/11 03:36:53;;;;;;;2.07;1.97;;;;;;;12.92;81.82;96419.44;5073508;28;20222;-57
2023/04/11 03:39:20;;;;;;;2.23;1.83;;;;;;;12.91;80.87;96434.50;5059471;28;20200;-56
2023/04/11 03:41:48;;;;;;;1.93;1.83;;;;;;;12.76;84.39;96432.63;5041942;28;20218;-56
2023/04/11 03:44:15;;;;;;;2.30;2.10;;;;;;;12.71;85.94;96419.88;5038326;28;20549;-57
2023/04/11 03:46:41;;;;;;;3.20;1.70;;;;;;;12.71;85.38;96424.34;5040879;28;20206;-57
2023/04/11 03:49:08;;;;;;;2.23;2.07;;;;;;;12.53;88.17;96427.09;5037293;28;20216;-56
2023/04/11 03:51:34;;;;;;;1.83;1.63;;;;;;;12.48;88.10;96424.94;5042467;28;20203;-56
2023/04/11 03:54:01;;;;;;;1.97;1.87;;;;;;;12.47;90.92;96433.03;5045309;28;20208;-56
2023/04/11 03:56:27;;;;;;;2.80;2.00;;;;;;;12.38;92.16;96413.63;5040045;28;20223;-56
2023/04/11 03:58:55;;;;;;;1.83;1.60;;;;;;;12.34;92.62;96428.19;5038862;28;20266;-57
2023/04/11 04:01:23;;;;;;;3.13;1.73;;;;;;;12.20;94.67;96414.69;5056022;28;20206;-56
2023/04/11 04:03:49;;;;;;;3.10;1.93;;;;;;;12.17;95.46;96430.91;5051598;28;20277;-56
2023/04/11 04:06:16;;;;;;;1.80;1.70;;;;;;;12.02;97.54;96445.72;5049629;28;20618;-56
2023/04/11 04:08:42;;;;;;;2.27;1.80;;;;;;;11.96;100.00;96445.38;5037859;28;20216;-57
2023/04/11 04:11:09;;;;;;;1.73;1.63;;;;;;;11.86;100.00;96434.06;5036799;28;20211;-57
2023/04/11 04:13:35;;;;;;;1.30;1.20;;;;;;;11.74;100.00;96445.88;5047355;28;20302;-56
2023/04/11 04:16:04;;;;;;;1.50;1.40;;;;;;;11.68;100.00;96445.66;5047340;28;20273;-55
2023/04/11 04:18:30;;;;;;;2.40;1.50;;;;;;;11.65;100.00;96452.09;5046027;28;20220;-56
2023/04/11 04:20:57;;;;;;;1.80;1.63;;;;;;;11.55;100.00;96453.97;5047705;28;20690;-56
2023/04/11 04:23:25;;;;;;;1.90;1.50;;;;;;;11.52;100.00;96462.22;5049412;28;20208;-56
2023/04/11 04:25:52;;;;;;;2.00;1.47;;;;;;;11.51;100.00;96459.75;5047815;28;20505;-57
2023/04/11 04:28:21;;;;;;;1.50;1.40;;;;;;;11.53;100.00;96465.72;5041802;28;20203;-56
2023/04/11 04:30:52;;;;;;;1.70;1.60;;;;;;;11.51;100.00;96465.88;5034871;28;20214;-57
2023/04/11 04:33:20;;;;;;;1.47;1.37;;;;;;;11.40;100.00;96455.53;5042272;28;20203;-57
2023/04/11 04:35:47;;;;;;;2.13;1.67;;;;;;;11.43;100.00;96464.00;5056518;28;20203;-57
2023/04/11 04:38:16;;;;;;;1.80;1.70;;;;;;;11.38;100.00;96460.97;5056858;28;20575;-57
2023/04/11 04:40:42;;;;;;;2.03;1.37;;;;;;;11.39;100.00;96472.38;5039804;28;20211;-57
2023/04/11 04:43:16;;;;;;;1.83;1.63;;;;;;;11.18;100.00;96471.88;5049362;28;20207;-57
2023/04/11 04:45:43;;;;;;;2.03;1.57;;;;;;;11.30;100.00;96475.97;5046017;28;20294;-56
2023/04/11 04:48:09;;;;;;;2.23;1.40;;;;;;;11.36;100.00;96478.00;5046492;28;20286;-56
2023/04/11 04:50:38;;;;;;;2.93;1.83;;;;;;;11.31;100.00;96483.72;5045749;28;20207;-56
2023/04/11 04:53:05;;;;;;;1.97;1.57;;;;;;;11.24;100.00;96492.44;5052033;28;20218;-57
2023/04/11 04:55:31;;;;;;;2.43;1.80;;;;;;;11.29;100.00;96498.13;5048055;28;20196;-56
2023/04/11 04:57:58;;;;;;;1.50;1.40;;;;;;;11.25;100.00;96502.03;5041790;28;20675;-58
2023/04/11 05:00:24;;;;;;;2.43;2.20;;;;;;;11.19;100.00;96502.66;5039108;28;20208;-57
2023/04/11 05:02:53;;;;;;;1.80;1.60;;;;;;;11.14;100.00;96520.78;5044755;28;20207;-57
2023/04/11 05:05:19;;;;;;;1.90;1.80;;;;;;;11.10;100.00;96511.47;5036819;28;20207;-56
2023/04/11 05:07:47;;;;;;;2.13;1.63;;;;;;;11.07;100.00;96519.72;5046514;28;20552;-57
2023/04/11 05:10:14;;;;;;;2.23;2.10;;;;;;;11.04;100.00;96515.56;5064708;28;20261;-56
2023/04/11 05:12:40;;;;;;;2.07;1.97;;;;;;;11.06;100.00;96523.34;5044539;28;20298;-58
2023/04/11 05:15:10;;;;;;;1.70;1.53;;;;;;;11.10;100.00;96530.00;5034935;28;20258;-56
2023/04/11 05:17:37;;;;;;;1.20;1.10;;;;;;;11.18;100.00;96516.84;5034768;28;20228;-57
2023/04/11 05:20:05;;;;;;;2.00;1.30;;;;;;;11.16;100.00;96524.94;5039343;28;20208;-57
2023/04/11 05:22:32;;;;;;;0.93;0.93;;;;;;;11.13;100.00;96529.69;5056971;28;20172;-57
2023/04/11 05:25:00;;;;;;;1.13;1.10;;;;;;;11.15;100.00;96523.28;5072094;28;20196;-57
2023/04/11 05:27:26;;;;;;;1.00;1.00;;;;;;;11.16;100.00;96524.13;5061746;28;20180;-57
2023/04/11 05:29:53;;;;;;;1.40;1.30;;;;;;;11.11;100.00;96521.09;5079699;28;20210;-57
2023/04/11 05:32:19;;;;;;;1.23;1.23;;;;;;;11.14;100.00;96510.19;5080983;28;20229;-58
2023/04/11 05:34:54;;;;;;;1.17;1.13;;;;;;;11.23;100.00;96519.91;5082917;28;20206;-58
2023/04/11 05:37:20;;;;;;;1.20;1.20;;;;;;;11.20;100.00;96509.59;5081642;28;20274;-57
2023/04/11 05:39:47;;;;;;;1.27;1.23;;;;;;;11.15;100.00;96517.16;5072642;28;20196;-57
2023/04/11 05:42:16;;;;;;;1.30;1.20;;;;;;;11.06;100.00;96524.16;5048826;28;20536;-57
2023/04/11 05:44:42;;;;;;;1.20;1.20;;;;;;;11.06;100.00;96520.69;5049959;28;20229;-57
2023/04/11 05:47:10;;;;;;;1.57;1.30;;;;;;;11.06;100.00;96524.16;5049142;28;20259;-57
2023/04/11 05:49:36;;;;;;;2.57;1.57;;;;;;;11.10;100.00;96520.25;5038298;28;20277;-57
2023/04/11 05:52:05;;;;;;;2.13;1.40;;;;;;;11.10;100.00;96516.75;5045731;28;20535;-56
2023/04/11 05:54:33;;;;;;;1.23;1.00;;;;;;;11.12;100.00;96520.13;5050401;28;20230;-56
2023/04/11 05:57:00;;;;;;;1.40;1.30;;;;;;;11.13;100.00;96524.41;5041803;28;20262;-57
2023/04/11 05:59:31;;;;;;;1.20;1.00;;;;;;;11.10;100.00;96514.97;5049656;28;20215;-57
2023/04/11 06:01:58;;;;;;;1.80;1.20;;;;;;;11.09;100.00;96515.13;5051758;28;20260;-57
2023/04/11 06:04:26;;;;;;;2.93;0.80;;;;;;;11.07;100.00;96515.25;5038693;28;20254;-57
2023/04/11 06:06:53;;;;;;;1.27;0.80;;;;;;;11.08;100.00;96509.00;5051340;28;20220;-57
2023/04/11 06:09:19;;;;;;;0.70;0.70;;;;;;;11.04;100.00;96518.22;5037957;28;20655;-57
2023/04/11 06:11:46;;;;;;;0.90;0.67;;;;;;;11.05;100.00;96521.69;5038115;28;20235;-58
2023/04/11 06:14:12;;;;;;;2.80;1.07;;;;;;;11.04;100.00;96509.44;5038494;28;20216;-56
2023/04/11 06:16:41;;;;;;;1.57;0.80;;;;;;;11.04;100.00;96522.66;5041705;28;20547;-57
2023/04/11 06:19:07;;;;;;;2.57;0.90;;;;;;;11.05;100.00;96519.03;5057446;28;20276;-58
2023/04/11 06:21:34;;;;;;;1.40;0.83;;;;;;;11.01;100.00;96528.25;5039800;28;20235;-57
2023/04/11 06:24:04;;;;;;;1.03;0.70;;;;;;;10.98;100.00;96527.56;5038869;28;20215;-58
2023/04/11 06:26:30;;;;;;;0.50;0.50;;;;;;;10.92;100.00;96528.16;5045506;28;20203;-57
2023/04/11 06:28:57;;;;;;;1.00;0.80;;;;;;;10.95;100.00;96532.31;5061952;28;20200;-57
2023/04/11 06:31:25;;;;;;;1.67;0.80;;;;;;;10.95;100.00;96522.56;5048005;28;20627;-57
2023/04/11 06:33:54;;;;;;;0.80;0.50;;;;;;;10.87;100.00;96514.56;5036119;28;20232;-56
2023/04/11 06:36:20;;;;;;;1.63;0.87;;;;;;;10.91;100.00;96517.75;5037681;28;20536;-56
2023/04/11 06:38:48;;;;;;;0.80;0.80;;;;;;;10.98;100.00;96527.56;5046849;28;20230;-56
2023/04/11 06:41:14;;;;;;;1.03;0.53;;;;;;;10.97;100.00;96531.19;5037623;28;20247;-56
2023/04/11 06:43:41;;;;;;;1.13;0.93;;;;;;;11.02;100.00;96529.94;5036302;28;20203;-57
2023/04/11 06:46:07;;;;;;;1.80;0.90;;;;;;;11.05;100.00;96538.41;5059514;28;20204;-56
2023/04/11 06:48:34;;;;;;;2.33;0.90;;;;;;;11.05;100.00;96546.34;5048399;28;20260;-57
2023/04/11 06:51:02;;;;;;;1.00;0.70;;;;;;;11.09;100.00;96547.69;5045741;28;20212;-57
2023/04/11 06:53:29;;;;;;;0.70;0.70;;;;;;;11.07;100.00;96547.00;5075077;28;20187;-57
2023/04/11 06:55:56;;;;;;;2.10;0.90;;;;;;;11.10;100.00;96552.00;5071499;28;20214;-57
2023/04/11 06:58:23;;;;;;;0.50;0.50;;;;;;;11.14;100.00;96553.38;5043208;28;20228;-57
2023/04/11 07:00:50;;;;;;;1.20;0.90;;;;;;;11.16;100.00;96562.00;5036065;28;20281;-57
2023/04/11 07:03:17;;;;;;;1.63;1.00;;;;;;;11.15;100.00;96564.81;5035513;28;20215;-57
2023/04/11 07:05:43;;;;;;;7.80;5.30;;;;;;;11.14;100.00;96573.72;5042709;28;20250;-57
2023/04/11 07:08:11;;;;;;;2.47;1.80;;;;;;;11.13;100.00;96586.09;5055987;28;20214;-56
2023/04/11 07:10:38;;;;;;;1.60;0.80;;;;;;;11.15;100.00;96581.53;5066478;28;20207;-57
2023/04/11 07:13:04;;;;;;;0.73;0.70;;;;;;;11.09;100.00;96590.03;5075176;28;20203;-56
2023/04/11 07:15:31;;;;;;;0.73;0.73;;;;;;;11.09;100.00;96594.50;5076083;28;20656;-57
2023/04/11 07:17:57;;;;;;;1.10;0.87;;;;;;;11.05;100.00;96601.06;5044803;28;20235;-57
2023/04/11 07:20:23;;;;;;;1.83;1.20;;;;;;;11.08;100.00;96603.44;5012070;28;1031491;-57
2023/04/11 07:22:51;;;;;;;1.13;0.97;;;;;;;11.09;100.00;96608.56;5037090;28;20204;-58
2023/04/11 07:25:21;;;;;;;0.73;0.67;;;;;;;11.14;100.00;96597.53;5044487;28;20701;-57
2023/04/11 07:27:48;;;;;;;1.30;0.80;;;;;;;11.17;100.00;96610.47;5043299;28;20208;-57
2023/04/11 07:30:14;;;;;;;0.83;0.60;;;;;;;11.14;100.00;96600.19;5056304;28;20203;-58
2023/04/11 07:32:41;;;;;;;0.83;0.63;;;;;;;11.18;100.00;96612.13;5056278;28;20222;-58
2023/04/11 07:35:08;;;;;;;1.57;1.00;;;;;;;11.19;100.00;96621.75;5055182;28;20552;-58
2023/04/11 07:37:35;;;;;;;1.23;1.00;;;;;;;11.14;100.00;96621.34;5054596;28;20581;-58
2023/04/11 07:40:05;;;;;;;0.67;0.63;;;;;;;11.08;100.00;96635.19;5047276;28;20211;-57
2023/04/11 07:42:33;;;;;;;1.10;0.90;;;;;;;11.08;100.00;96637.81;5036498;28;20207;-56
2023/04/11 07:44:59;;;;;;;0.83;0.60;;;;;;;10.99;100.00;96635.06;5051670;28;20206;-57
2023/04/11 07:47:26;;;;;;;0.70;0.70;;;;;;;10.96;100.00;96642.47;5045113;28;20223;-56
2023/04/11 07:49:52;;;;;;;1.37;0.60;;;;;;;10.82;100.00;96635.84;5045928;28;20223;-57
2023/04/11 07:52:21;;;;;;;1.90;0.67;;;;;;;10.88;100.00;96643.19;5042502;28;20219;-56
2023/04/11 07:54:47;;;;;;;0.40;0.40;;;;;;;10.79;100.00;96649.34;5036082;28;20544;-57
2023/04/11 07:57:14;;;;;;;1.50;1.00;;;;;;;10.77;100.00;96648.66;5053358;28;20207;-56
2023/04/11 07:59:42;;;;;;;0.50;0.50;;;;;;;10.87;100.00;96652.13;5046713;28;20220;-57
2023/04/11 08:02:09;;;;;;;1.17;0.60;;;;;;;10.89;100.00;96650.16;5036285;28;20659;-57
2023/04/11 08:04:36;;;;;;;1.03;0.40;;;;;;;10.71;100.00;96651.88;5035644;28;20700;-57
2023/04/11 08:07:03;;;;;;;0.53;0.53;;;;;;;10.73;100.00;96654.38;5049685;28;20212;-57
2023/04/11 08:09:30;;;;;;;1.90;0.50;;;;;;;10.68;100.00;96659.25;5035927;28;20200;-57
2023/04/11 08:11:57;;;;;;;0.70;0.70;;;;;;;10.65;100.00;96648.97;5036195;28;20219;-57
2023/04/11 08:14:23;;;;;;;0.83;0.70;;;;;;;10.69;100.00;96648.56;5036465;28;20207;-57
2023/04/11 08:16:52;;;;;;;0.90;0.50;;;;;;;10.68;100.00;96660.09;5035761;28;20558;-57
2023/04/11 08:19:18;;;;;;;1.70;1.60;;;;;;;10.68;100.00;96668.03;5035591;28;20228;-57
2023/04/11 08:21:45;;;;;;;2.23;0.70;;;;;;;10.72;100.00;96668.59;5035810;28;20246;-58
2023/04/11 08:24:11;;;;;;;0.60;0.40;;;;;;;10.74;100.00;96662.16;5036133;28;20207;-56
2023/04/11 08:26:38;;;;;;;1.57;0.60;;;;;;;10.69;100.00;96675.00;5036192;28;20208;-57
2023/04/11 08:29:04;;;;;;;1.07;0.60;;;;;;;10.67;100.00;96676.94;5045722;28;20198;-57
2023/04/11 08:31:31;;;;;;;0.67;0.63;;;;;;;10.68;100.00;96689.19;5055339;28;20627;-58
2023/04/11 08:33:59;;;;;;;1.00;0.60;;;;;;;10.67;100.00;96687.50;5054892;28;20234;-57
2023/04/11 08:36:26;;;;;;;1.13;0.80;;;;;;;10.58;100.00;96693.66;5054976;28;20290;-56
2023/04/11 08:38:54;;;;;;;1.07;0.60;;;;;;;10.52;100.00;96694.25;5052954;28;20317;-57
2023/04/11 08:41:20;;;;;;;1.67;0.80;;;;;;;10.61;100.00;96692.53;5035063;28;20731;-57
2023/04/11 08:43:47;;;;;;;1.00;0.50;;;;;;;10.62;100.00;96707.44;5035391;28;20269;-57
2023/04/11 08:46:13;;;;;;;1.87;0.70;;;;;;;10.54;100.00;96699.38;5054688;28;20258;-56
2023/04/11 08:48:40;;;;;;;1.33;0.90;;;;;;;10.55;100.00;96708.97;5034593;28;20208;-57
2023/04/11 08:51:08;;;;;;;1.80;0.63;;;;;;;10.58;100.00;96708.69;5036168;28;20226;-56
2023/04/11 08:53:36;;;;;;;2.67;1.10;;;;;;;10.51;100.00;96718.16;5045526;28;20238;-57
2023/04/11 08:56:03;;;;;;;1.43;0.87;;;;;;;10.56;100.00;96716.75;5055600;28;20210;-56
2023/04/11 08:58:32;;;;;;;1.50;0.77;;;;;;;10.51;100.00;96718.16;5056454;28;20212;-57
2023/04/11 09:01:22;;;;;;;1.60;0.73;;;;;;;10.43;100.00;96710.94;5053943;28;20234;-57
2023/04/11 09:03:50;;;;;;;3.50;1.20;;;;;;;10.42;100.00;96701.31;5049048;28;20222;-57
2023/04/11 09:06:18;;;;;;;3.40;1.37;;;;;;;10.51;100.00;96703.16;5035641;28;20644;-56
2023/04/11 09:08:44;;;;;;;2.23;1.10;;;;;;;10.48;99.76;96698.97;5035411;28;20203;-56
2023/04/11 09:11:11;;;;;;;2.03;1.00;;;;;;;10.60;99.82;96704.94;5050062;28;20199;-57
2023/04/11 09:13:37;;;;;;;2.73;1.30;;;;;;;10.65;100.00;96697.41;5058966;28;20212;-57
2023/04/11 09:16:05;;;;;;;1.20;1.10;;;;;;;10.72;100.00;96701.16;5057607;28;20213;-57
2023/04/11 09:18:33;;;;;;;1.50;1.07;;;;;;;10.84;97.07;96705.28;5058555;28;20229;-57
2023/04/11 09:21:03;;;;;;;3.50;0.93;;;;;;;10.89;98.48;96718.09;5064176;28;20232;-58
2023/04/11 09:23:30;;;;;;;2.93;1.20;;;;;;;10.86;95.25;96716.59;5059408;28;20620;-57
2023/04/11 09:25:57;;;;;;;2.83;1.40;;;;;;;10.97;94.70;96718.22;5056427;28;20537;-57
2023/04/11 09:28:26;;;;;;;3.97;1.00;;;;;;;10.95;92.93;96713.06;5038388;28;20247;-56
2023/04/11 09:30:55;;;;;;;3.50;1.60;;;;;;;10.90;92.30;96712.69;5055010;28;20203;-56
2023/04/11 09:33:23;;;;;;;3.33;1.40;;;;;;;11.09;90.42;96717.06;5035658;28;20211;-58
2023/04/11 09:35:51;;;;;;;2.37;1.60;;;;;;;11.08;92.51;96717.22;5039362;28;20215;-58
2023/04/11 09:38:29;;;;;;;4.03;1.43;;;;;;;11.07;91.25;96731.41;5042142;28;20230;-57
2023/04/11 09:40:57;;;;;;;3.43;1.33;;;;;;;11.17;90.56;96721.63;5038485;28;20203;-58
2023/04/11 09:43:24;;;;;;;3.63;1.73;;;;;;;11.21;85.71;96728.31;5035380;28;20219;-56
2023/04/11 09:46:07;;;;;;;2.50;1.13;;;;;;;11.25;85.69;96735.81;5035050;28;20637;-56
2023/04/11 09:48:35;;;;;;;3.03;1.27;;;;;;;11.32;89.14;96721.03;5047330;28;20217;-57
2023/04/11 09:51:04;;;;;;;3.47;1.43;;;;;;;11.39;89.19;96722.13;5034820;28;20219;-57
2023/04/11 09:53:31;;;;;;;2.33;1.13;;;;;;;11.49;85.46;96727.34;5041037;28;20219;-57
2023/04/11 09:55:59;;;;;;;3.03;0.93;;;;;;;11.53;85.16;96723.44;5034849;28;20627;-56
2023/04/11 09:58:26;;;;;;;2.43;1.43;;;;;;;11.52;83.42;96716.47;5035161;28;20668;-57
2023/04/11 10:00:52;;;;;;;3.03;0.87;;;;;;;11.57;83.33;96722.16;5041652;28;20214;-57
2023/04/11 10:03:22;;;;;;;3.77;1.63;;;;;;;11.65;84.02;96719.63;5041922;28;20617;-57
2023/04/11 10:05:48;;;;;;;3.37;1.20;;;;;;;11.73;78.04;96700.34;5035452;28;20208;-57
2023/04/11 10:08:20;;;;;;;2.83;1.90;;;;;;;11.87;85.67;96716.56;5048950;28;20203;-58
2023/04/11 10:10:46;;;;;;;3.03;1.53;;;;;;;12.03;80.35;96712.44;5057007;28;20203;-57
2023/04/11 10:13:46;;;;;;;4.00;1.50;;;;;;;12.15;73.98;96709.41;5054949;28;20223;-57
2023/04/11 10:16:14;;;;;;;2.20;1.30;;;;;;;12.11;77.40;96704.56;5024140;28;20197;-56
2023/04/11 10:19:17;;;;;;;2.50;1.00;;;;;;;12.17;75.38;96711.91;5055454;28;20253;-56
2023/04/11 10:21:43;;;;;;;7.10;1.80;;;;;;;12.23;78.81;96720.09;5041380;28;20696;-57
2023/04/11 10:24:11;;;;;;;1.37;1.00;;;;;;;12.30;75.98;96723.81;5039400;28;20510;-58
2023/04/11 10:26:54;;;;;;;1.90;1.20;;;;;;;12.38;74.11;96731.00;5052918;28;20223;-58
2023/04/11 10:29:47;;;;;;;3.80;0.83;;;;;;;12.45;74.41;96729.41;5052518;28;20191;-57
2023/04/11 10:32:19;;;;;;;1.20;0.77;;;;;;;12.37;74.43;96734.63;5041472;28;20215;-57
2023/04/11 10:35:30;;;;;;;3.10;1.30;;;;;;;12.47;71.63;96740.69;5040496;28;20232;-58
2023/04/11 10:37:56;;;;;;;2.47;1.30;;;;;;;12.36;70.63;96749.72;5044941;28;20210;-56
2023/04/11 10:40:24;;;;;;;2.67;0.87;;;;;;;12.32;71.76;96744.88;5045241;28;20234;-57
2023/04/11 10:42:50;;;;;;;1.60;0.87;;;;;;;12.36;74.38;96749.72;5038168;28;20212;-57
2023/04/11 10:45:20;;;;;;;2.70;1.30;;;;;;;12.33;70.81;96747.38;5054052;28;20199;-56
2023/04/11 10:48:09;;;;;;;3.67;1.33;;;;;;;12.27;71.68;96737.38;5051290;28;20726;-58
2023/04/11 10:50:41;;;;;;;3.80;1.53;;;;;;;12.23;75.11;96737.81;5040384;28;20207;-57
2023/04/11 10:53:13;;;;;;;4.13;1.20;;;;;;;12.08;74.73;96742.78;5048405;28;20544;-57
2023/04/11 10:55:45;;;;;;;6.03;1.30;;;;;;;12.12;79.42;96730.06;5055442;28;20238;-57
2023/04/11 10:58:15;;;;;;;3.37;1.07;;;;;;;12.24;75.40;96734.19;5057501;28;20594;-57
2023/04/11 11:01:17;;;;;;;5.00;1.57;;;;;;;12.18;71.42;96735.63;5057329;28;20686;-58
2023/04/11 11:03:55;;;;;;;3.20;1.27;;;;;;;12.12;71.97;96727.44;5056611;28;20214;-58
2023/04/11 11:06:22;;;;;;;3.37;2.03;;;;;;;12.14;70.89;96731.63;5060465;28;20199;-57
2023/04/11 11:08:49;;;;;;;2.80;1.27;;;;;;;12.08;73.40;96728.75;5057392;28;20208;-57
2023/04/11 11:11:18;;;;;;;3.60;1.03;;;;;;;12.10;74.28;96732.06;5052531;28;20207;-57
2023/04/11 11:13:46;;;;;;;3.67;1.40;;;;;;;12.09;71.57;96730.38;5057178;28;20211;-57
2023/04/11 11:16:15;;;;;;;2.67;1.00;;;;;;;11.95;71.95;96731.72;5056596;28;20214;-58
2023/04/11 11:18:46;;;;;;;1.87;0.90;;;;;;;11.88;71.65;96728.84;5050392;28;20687;-57
2023/04/11 11:21:15;;;;;;;2.83;1.23;;;;;;;11.90;74.01;96748.06;5050023;28;20640;-57
2023/04/11 11:23:53;;;;;;;2.23;0.87;;;;;;;11.95;70.99;96751.13;5053898;28;20211;-57
2023/04/11 11:26:19;;;;;;;1.93;1.23;;;;;;;11.82;72.98;96740.06;5068568;28;20237;-57
2023/04/11 11:28:46;;;;;;;2.33;0.90;;;;;;;11.78;72.38;96740.50;5067838;28;20202;-58
2023/04/11 11:31:13;;;;;;;3.50;1.17;;;;;;;11.80;73.99;96747.31;5058785;28;20207;-58
2023/04/11 11:33:40;;;;;;;2.30;1.07;;;;;;;11.69;78.70;96744.81;5056670;28;20214;-58